Akaska, South Dakota
Current Conditions -  °F | °C
As of 11:52 PM on Friday 19 Dec 2014 (Local Time) from KMBG Reporting Station
Clear Clear  
Wind Chill: 12°   Ceiling: Unl
Heat Index: 21°   Visibility: 8mi
Dew Point: 18°   Wind: 7mph
Humidity: 88%   Direction: 130°SE
Pressure: 29.93"   Gusts: NA
Location:  45.33°N, 100.12°W
Report Text: KMBG 200552Z AUTO 13006KT 8SM CLR M06/M08 A2993 RMK AO2 SLP160 I1000 I6000 T10611078 11028 21061 400221067 53004
Loading
Personal Weather Stations






























Interactive Weather Map New forecast layout! Learn more

10-Day Weather Forecast

Advertisements
Track Severe Weather on mobile